sensor_id;sensor_type;location;lat;lon;timestamp;P1;durP1;ratioP1;P2;durP2;ratioP2
66946;SDS011;53853;51.982;5.928;2022-12-10T09:47:06;55.63;;;30.80;;
66946;SDS011;53853;51.982;5.928;2022-12-10T09:49:41;76.35;;;34.45;;
66946;SDS011;53853;51.982;5.928;2022-12-10T09:52:31;68.50;;;32.70;;
66946;SDS011;53853;51.982;5.928;2022-12-10T09:55:08;54.75;;;30.88;;
66946;SDS011;53853;51.982;5.928;2022-12-10T09:57:41;64.60;;;32.83;;
66946;SDS011;53853;51.982;5.928;2022-12-10T10:00:19;58.45;;;30.70;;
66946;SDS011;53853;51.982;5.928;2022-12-10T10:02:54;63.90;;;33.95;;
66946;SDS011;53853;51.982;5.928;2022-12-10T10:05:28;63.75;;;32.65;;
66946;SDS011;53853;51.982;5.928;2022-12-10T10:08:01;58.88;;;30.35;;
66946;SDS011;53853;51.982;5.928;2022-12-10T10:10:33;61.13;;;33.13;;
66946;SDS011;53853;51.982;5.928;2022-12-10T10:13:11;61.22;;;30.90;;
66946;SDS011;53853;51.982;5.928;2022-12-10T10:15:47;57.10;;;29.92;;
66946;SDS011;53853;51.982;5.928;2022-12-10T10:18:23;71.30;;;35.22;;
66946;SDS011;53853;51.982;5.928;2022-12-10T10:21:03;65.18;;;36.85;;
66946;SDS011;53853;51.982;5.928;2022-12-10T10:23:35;65.10;;;34.22;;
66946;SDS011;53853;51.982;5.928;2022-12-10T10:26:05;72.55;;;37.85;;
66946;SDS011;53853;51.982;5.928;2022-12-10T10:28:35;60.97;;;31.63;;
66946;SDS011;53853;51.982;5.928;2022-12-10T10:31:09;59.05;;;29.38;;
66946;SDS011;53853;51.982;5.928;2022-12-10T10:33:53;54.35;;;28.10;;
66946;SDS011;53853;51.982;5.928;2022-12-10T10:36:25;65.93;;;32.42;;
66946;SDS011;53853;51.982;5.928;2022-12-10T10:38:57;55.10;;;31.50;;
66946;SDS011;53853;51.982;5.928;2022-12-10T10:41:38;57.35;;;28.33;;
66946;SDS011;53853;51.982;5.928;2022-12-10T10:44:13;53.58;;;29.65;;
66946;SDS011;53853;51.982;5.928;2022-12-10T10:46:44;73.32;;;34.33;;
66946;SDS011;53853;51.982;5.928;2022-12-10T10:49:22;67.95;;;34.95;;
66946;SDS011;53853;51.982;5.928;2022-12-10T10:51:54;60.08;;;32.25;;
66946;SDS011;53853;51.982;5.928;2022-12-10T10:54:33;71.82;;;34.90;;
66946;SDS011;53853;51.982;5.928;2022-12-10T10:57:11;69.45;;;34.35;;
66946;SDS011;53853;51.982;5.928;2022-12-10T10:59:46;69.70;;;36.92;;
66946;SDS011;53853;51.982;5.928;2022-12-10T11:02:18;60.22;;;32.28;;
66946;SDS011;53853;51.982;5.928;2022-12-10T11:04:55;65.28;;;33.22;;
66946;SDS011;53853;51.982;5.928;2022-12-10T11:07:32;56.35;;;30.02;;
66946;SDS011;53853;51.982;5.928;2022-12-10T11:10:04;77.50;;;35.63;;
66946;SDS011;53853;51.982;5.928;2022-12-10T11:12:53;56.58;;;30.08;;
66946;SDS011;53853;51.982;5.928;2022-12-10T11:15:33;56.17;;;28.85;;
66946;SDS011;53853;51.982;5.928;2022-12-10T11:18:23;57.03;;;30.00;;
66946;SDS011;53853;51.982;5.928;2022-12-10T11:21:02;57.22;;;30.27;;
66946;SDS011;53853;51.982;5.928;2022-12-10T11:23:37;52.67;;;29.35;;
66946;SDS011;53853;51.982;5.928;2022-12-10T11:26:11;58.38;;;30.35;;
66946;SDS011;53853;51.982;5.928;2022-12-10T11:29:02;60.65;;;31.42;;
66946;SDS011;53853;51.982;5.928;2022-12-10T11:31:47;50.88;;;30.17;;
66946;SDS011;53853;51.982;5.928;2022-12-10T11:34:28;54.35;;;30.10;;
66946;SDS011;53853;51.982;5.928;2022-12-10T11:37:12;64.00;;;33.63;;
66946;SDS011;53853;51.982;5.928;2022-12-10T11:39:55;55.72;;;29.88;;
66946;SDS011;53853;51.982;5.928;2022-12-10T11:42:38;60.42;;;31.20;;
66946;SDS011;53853;51.982;5.928;2022-12-10T11:47:56;67.55;;;30.88;;
66946;SDS011;53853;51.982;5.928;2022-12-10T11:50:40;56.15;;;29.90;;
66946;SDS011;53853;51.982;5.928;2022-12-10T11:53:23;53.67;;;29.00;;
66946;SDS011;53853;51.982;5.928;2022-12-10T11:56:07;51.42;;;29.30;;
66946;SDS011;53853;51.982;5.928;2022-12-10T11:58:46;59.38;;;30.08;;
66946;SDS011;53853;51.982;5.928;2022-12-10T12:01:37;55.00;;;30.00;;
66946;SDS011;53853;51.982;5.928;2022-12-10T12:04:25;54.15;;;29.10;;
66946;SDS011;53853;51.982;5.928;2022-12-10T12:13:11;54.17;;;28.92;;
66946;SDS011;53853;51.982;5.928;2022-12-10T12:15:44;50.10;;;27.77;;
66946;SDS011;53853;51.982;5.928;2022-12-10T12:18:20;54.33;;;29.92;;
66946;SDS011;53853;51.982;5.928;2022-12-10T12:20:55;58.33;;;30.17;;
66946;SDS011;53853;51.982;5.928;2022-12-10T12:23:28;56.85;;;27.98;;
66946;SDS011;53853;51.982;5.928;2022-12-10T12:26:08;53.60;;;28.80;;
66946;SDS011;53853;51.982;5.928;2022-12-10T12:28:43;55.83;;;30.92;;
66946;SDS011;53853;51.982;5.928;2022-12-10T12:31:20;52.55;;;28.17;;
66946;SDS011;53853;51.982;5.928;2022-12-10T12:33:54;56.28;;;29.75;;
66946;SDS011;53853;51.982;5.928;2022-12-10T12:36:31;55.17;;;29.33;;
66946;SDS011;53853;51.982;5.928;2022-12-10T12:39:05;76.90;;;34.05;;
66946;SDS011;53853;51.982;5.928;2022-12-10T12:41:54;53.30;;;29.02;;
66946;SDS011;53853;51.982;5.928;2022-12-10T12:44:31;55.85;;;30.27;;
66946;SDS011;53853;51.982;5.928;2022-12-10T12:47:11;57.20;;;30.52;;
66946;SDS011;53853;51.982;5.928;2022-12-10T12:49:51;64.85;;;33.25;;
66946;SDS011;53853;51.982;5.928;2022-12-10T12:52:26;57.50;;;29.38;;
66946;SDS011;53853;51.982;5.928;2022-12-10T12:55:04;51.33;;;27.95;;
66946;SDS011;53853;51.982;5.928;2022-12-10T12:57:46;58.00;;;29.55;;
66946;SDS011;53853;51.982;5.928;2022-12-10T13:00:20;56.90;;;30.10;;
66946;SDS011;53853;51.982;5.928;2022-12-10T13:02:53;64.20;;;31.63;;
66946;SDS011;53853;51.982;5.928;2022-12-10T13:05:33;59.55;;;30.48;;
66946;SDS011;53853;51.982;5.928;2022-12-10T13:08:15;58.15;;;29.20;;
66946;SDS011;53853;51.982;5.928;2022-12-10T13:10:54;48.38;;;26.35;;
66946;SDS011;53853;51.982;5.928;2022-12-10T13:13:31;50.90;;;28.20;;
66946;SDS011;53853;51.982;5.928;2022-12-10T13:21:57;66.97;;;32.83;;
66946;SDS011;53853;51.982;5.928;2022-12-10T13:24:59;55.53;;;29.02;;
66946;SDS011;53853;51.982;5.928;2022-12-10T13:27:38;68.75;;;31.75;;
66946;SDS011;53853;51.982;5.928;2022-12-10T13:33:14;55.03;;;28.52;;
66946;SDS011;53853;51.982;5.928;2022-12-10T13:38:38;43.47;;;24.25;;
66946;SDS011;53853;51.982;5.928;2022-12-10T13:41:10;40.55;;;22.65;;
66946;SDS011;53853;51.982;5.928;2022-12-10T13:43:53;52.45;;;27.25;;
66946;SDS011;53853;51.982;5.928;2022-12-10T13:46:53;40.15;;;21.10;;
66946;SDS011;53853;51.982;5.928;2022-12-10T13:49:28;63.25;;;27.30;;
66946;SDS011;53853;51.982;5.928;2022-12-10T13:52:02;44.35;;;25.08;;
66946;SDS011;53853;51.982;5.928;2022-12-10T13:54:52;49.15;;;24.70;;
66946;SDS011;53853;51.982;5.928;2022-12-10T13:57:44;53.47;;;27.92;;
66946;SDS011;53853;51.982;5.928;2022-12-10T14:00:49;40.53;;;21.73;;
66946;SDS011;53853;51.982;5.928;2022-12-10T14:03:39;44.33;;;24.23;;
66946;SDS011;53853;51.982;5.928;2022-12-10T14:06:21;59.55;;;27.52;;
66946;SDS011;53853;51.982;5.928;2022-12-10T14:08:54;62.28;;;27.88;;
66946;SDS011;53853;51.982;5.928;2022-12-10T14:11:28;44.72;;;25.30;;
66946;SDS011;53853;51.982;5.928;2022-12-10T14:14:01;46.55;;;24.92;;
66946;SDS011;53853;51.982;5.928;2022-12-10T14:16:32;48.60;;;24.30;;
66946;SDS011;53853;51.982;5.928;2022-12-10T14:19:08;46.10;;;23.45;;
66946;SDS011;53853;51.982;5.928;2022-12-10T14:21:43;45.72;;;24.63;;
66946;SDS011;53853;51.982;5.928;2022-12-10T14:24:32;52.85;;;27.00;;
66946;SDS011;53853;51.982;5.928;2022-12-10T14:27:09;56.88;;;30.02;;
66946;SDS011;53853;51.982;5.928;2022-12-10T14:29:45;55.28;;;24.70;;
66946;SDS011;53853;51.982;5.928;2022-12-10T14:32:17;36.45;;;22.27;;
66946;SDS011;53853;51.982;5.928;2022-12-10T14:34:55;52.95;;;24.08;;
66946;SDS011;53853;51.982;5.928;2022-12-10T14:37:27;46.97;;;22.50;;
66946;SDS011;53853;51.982;5.928;2022-12-10T14:39:59;68.72;;;26.90;;
66946;SDS011;53853;51.982;5.928;2022-12-10T14:42:29;43.95;;;24.85;;
66946;SDS011;53853;51.982;5.928;2022-12-10T14:45:00;32.63;;;18.58;;
66946;SDS011;53853;51.982;5.928;2022-12-10T14:47:35;37.92;;;21.02;;
66946;SDS011;53853;51.982;5.928;2022-12-10T14:50:11;32.63;;;18.10;;
66946;SDS011;53853;51.982;5.928;2022-12-10T14:52:45;38.42;;;21.80;;
66946;SDS011;53853;51.982;5.928;2022-12-10T14:55:19;45.63;;;23.58;;
66946;SDS011;53853;51.982;5.928;2022-12-10T14:57:53;42.28;;;20.23;;
66946;SDS011;53853;51.982;5.928;2022-12-10T15:00:25;53.33;;;27.23;;
66946;SDS011;53853;51.982;5.928;2022-12-10T15:02:56;34.92;;;18.80;;
66946;SDS011;53853;51.982;5.928;2022-12-10T15:05:31;61.55;;;23.10;;
66946;SDS011;53853;51.982;5.928;2022-12-10T15:10:35;36.22;;;19.80;;
66946;SDS011;53853;51.982;5.928;2022-12-10T15:13:08;36.50;;;19.23;;
66946;SDS011;53853;51.982;5.928;2022-12-10T15:15:47;42.22;;;20.08;;
66946;SDS011;53853;51.982;5.928;2022-12-10T15:18:19;52.65;;;21.63;;
66946;SDS011;53853;51.982;5.928;2022-12-10T15:21:03;34.53;;;18.60;;
66946;SDS011;53853;51.982;5.928;2022-12-10T15:23:35;30.08;;;17.92;;
66946;SDS011;53853;51.982;5.928;2022-12-10T15:26:10;41.13;;;21.35;;
66946;SDS011;53853;51.982;5.928;2022-12-10T15:28:44;34.00;;;19.33;;
66946;SDS011;53853;51.982;5.928;2022-12-10T15:31:19;35.83;;;20.00;;
66946;SDS011;53853;51.982;5.928;2022-12-10T15:33:52;37.28;;;20.95;;
66946;SDS011;53853;51.982;5.928;2022-12-10T15:36:28;32.65;;;19.20;;
66946;SDS011;53853;51.982;5.928;2022-12-10T15:39:04;38.58;;;21.58;;
66946;SDS011;53853;51.982;5.928;2022-12-10T15:41:42;34.38;;;20.13;;
66946;SDS011;53853;51.982;5.928;2022-12-10T15:44:18;36.03;;;19.10;;
66946;SDS011;53853;51.982;5.928;2022-12-10T15:46:58;38.58;;;20.25;;
66946;SDS011;53853;51.982;5.928;2022-12-10T15:49:30;37.20;;;21.02;;
66946;SDS011;53853;51.982;5.928;2022-12-10T15:52:03;45.83;;;21.75;;
66946;SDS011;53853;51.982;5.928;2022-12-10T15:54:33;37.42;;;19.63;;
66946;SDS011;53853;51.982;5.928;2022-12-10T15:57:09;39.45;;;20.33;;
66946;SDS011;53853;51.982;5.928;2022-12-10T15:59:42;36.40;;;19.92;;
66946;SDS011;53853;51.982;5.928;2022-12-10T16:02:18;39.15;;;20.85;;
66946;SDS011;53853;51.982;5.928;2022-12-10T16:04:55;46.60;;;19.65;;
66946;SDS011;53853;51.982;5.928;2022-12-10T16:07:27;33.63;;;18.52;;
66946;SDS011;53853;51.982;5.928;2022-12-10T16:09:58;35.72;;;18.83;;
66946;SDS011;53853;51.982;5.928;2022-12-10T16:12:28;35.30;;;20.30;;
66946;SDS011;53853;51.982;5.928;2022-12-10T16:14:58;33.45;;;18.85;;
66946;SDS011;53853;51.982;5.928;2022-12-10T16:17:29;33.95;;;18.45;;
66946;SDS011;53853;51.982;5.928;2022-12-10T16:19:59;38.90;;;20.65;;
66946;SDS011;53853;51.982;5.928;2022-12-10T16:22:41;45.55;;;21.08;;
66946;SDS011;53853;51.982;5.928;2022-12-10T16:25:11;32.33;;;19.48;;
66946;SDS011;53853;51.982;5.928;2022-12-10T16:27:41;38.55;;;19.48;;
66946;SDS011;53853;51.982;5.928;2022-12-10T16:30:13;36.25;;;19.13;;
66946;SDS011;53853;51.982;5.928;2022-12-10T16:32:46;32.45;;;19.30;;
66946;SDS011;53853;51.982;5.928;2022-12-10T16:35:17;34.25;;;18.98;;
66946;SDS011;53853;51.982;5.928;2022-12-10T16:37:49;33.40;;;18.85;;
66946;SDS011;53853;51.982;5.928;2022-12-10T16:40:20;41.58;;;20.20;;
66946;SDS011;53853;51.982;5.928;2022-12-10T16:42:51;37.97;;;18.30;;
66946;SDS011;53853;51.982;5.928;2022-12-10T16:45:22;29.67;;;15.15;;
66946;SDS011;53853;51.982;5.928;2022-12-10T16:47:55;27.67;;;14.77;;
66946;SDS011;53853;51.982;5.928;2022-12-10T16:50:25;38.30;;;18.33;;
66946;SDS011;53853;51.982;5.928;2022-12-10T16:52:58;32.70;;;17.38;;
66946;SDS011;53853;51.982;5.928;2022-12-10T16:55:35;30.50;;;17.33;;
66946;SDS011;53853;51.982;5.928;2022-12-10T16:58:07;32.40;;;17.80;;
66946;SDS011;53853;51.982;5.928;2022-12-10T17:00:40;39.30;;;21.27;;
66946;SDS011;53853;51.982;5.928;2022-12-10T17:03:12;35.17;;;18.65;;
66946;SDS011;53853;51.982;5.928;2022-12-10T17:05:48;35.90;;;17.58;;
66946;SDS011;53853;51.982;5.928;2022-12-10T17:08:21;33.53;;;18.88;;
66946;SDS011;53853;51.982;5.928;2022-12-10T17:10:52;30.70;;;17.35;;
66946;SDS011;53853;51.982;5.928;2022-12-10T17:13:36;38.87;;;19.60;;
66946;SDS011;53853;51.982;5.928;2022-12-10T17:16:08;43.28;;;20.73;;
66946;SDS011;53853;51.982;5.928;2022-12-10T17:18:41;45.33;;;22.33;;
66946;SDS011;53853;51.982;5.928;2022-12-10T17:21:11;32.83;;;18.75;;
66946;SDS011;53853;51.982;5.928;2022-12-10T17:23:43;39.45;;;20.85;;
66946;SDS011;53853;51.982;5.928;2022-12-10T17:26:15;32.80;;;18.13;;
66946;SDS011;53853;51.982;5.928;2022-12-10T17:28:54;37.38;;;19.02;;
66946;SDS011;53853;51.982;5.928;2022-12-10T17:31:28;32.60;;;18.00;;
66946;SDS011;53853;51.982;5.928;2022-12-10T17:33:59;36.10;;;18.55;;
66946;SDS011;53853;51.982;5.928;2022-12-10T17:36:29;33.10;;;18.33;;
66946;SDS011;53853;51.982;5.928;2022-12-10T17:39:01;33.15;;;18.27;;
66946;SDS011;53853;51.982;5.928;2022-12-10T17:41:31;35.92;;;19.40;;
66946;SDS011;53853;51.982;5.928;2022-12-10T17:44:03;34.50;;;20.13;;
66946;SDS011;53853;51.982;5.928;2022-12-10T17:46:33;35.63;;;18.95;;
66946;SDS011;53853;51.982;5.928;2022-12-10T17:49:03;43.20;;;21.35;;
66946;SDS011;53853;51.982;5.928;2022-12-10T17:51:34;35.58;;;19.15;;
66946;SDS011;53853;51.982;5.928;2022-12-10T17:54:06;33.97;;;18.85;;
66946;SDS011;53853;51.982;5.928;2022-12-10T17:56:37;39.90;;;19.17;;
66946;SDS011;53853;51.982;5.928;2022-12-10T17:59:07;33.80;;;18.58;;
66946;SDS011;53853;51.982;5.928;2022-12-10T18:01:39;29.63;;;16.40;;
66946;SDS011;53853;51.982;5.928;2022-12-10T18:04:10;45.25;;;20.55;;
66946;SDS011;53853;51.982;5.928;2022-12-10T18:06:40;39.78;;;18.52;;
66946;SDS011;53853;51.982;5.928;2022-12-10T18:09:12;35.80;;;21.92;;
66946;SDS011;53853;51.982;5.928;2022-12-10T18:11:42;34.45;;;18.15;;
66946;SDS011;53853;51.982;5.928;2022-12-10T18:14:13;43.45;;;21.67;;
66946;SDS011;53853;51.982;5.928;2022-12-10T18:16:43;48.47;;;23.08;;
66946;SDS011;53853;51.982;5.928;2022-12-10T18:19:14;28.52;;;16.50;;
66946;SDS011;53853;51.982;5.928;2022-12-10T18:21:44;29.27;;;15.93;;
66946;SDS011;53853;51.982;5.928;2022-12-10T18:24:16;31.52;;;17.30;;
66946;SDS011;53853;51.982;5.928;2022-12-10T18:26:46;33.55;;;17.55;;
66946;SDS011;53853;51.982;5.928;2022-12-10T18:29:16;45.53;;;21.25;;
66946;SDS011;53853;51.982;5.928;2022-12-10T18:31:46;32.97;;;18.30;;
66946;SDS011;53853;51.982;5.928;2022-12-10T18:34:16;32.63;;;18.38;;
66946;SDS011;53853;51.982;5.928;2022-12-10T18:36:47;32.80;;;17.90;;
66946;SDS011;53853;51.982;5.928;2022-12-10T18:39:21;46.72;;;24.45;;
66946;SDS011;53853;51.982;5.928;2022-12-10T18:41:54;35.90;;;19.48;;
66946;SDS011;53853;51.982;5.928;2022-12-10T18:44:24;34.38;;;18.90;;
66946;SDS011;53853;51.982;5.928;2022-12-10T18:46:56;40.83;;;20.35;;
66946;SDS011;53853;51.982;5.928;2022-12-10T18:49:27;43.95;;;20.95;;
66946;SDS011;53853;51.982;5.928;2022-12-10T18:51:58;35.13;;;19.25;;
66946;SDS011;53853;51.982;5.928;2022-12-10T18:54:31;40.70;;;20.58;;
66946;SDS011;53853;51.982;5.928;2022-12-10T18:57:01;31.63;;;17.92;;
66946;SDS011;53853;51.982;5.928;2022-12-10T18:59:31;29.77;;;16.90;;
66946;SDS011;53853;51.982;5.928;2022-12-10T19:02:01;38.65;;;19.42;;
66946;SDS011;53853;51.982;5.928;2022-12-10T19:04:31;28.73;;;16.67;;
66946;SDS011;53853;51.982;5.928;2022-12-10T19:07:01;41.78;;;20.48;;
66946;SDS011;53853;51.982;5.928;2022-12-10T19:09:34;37.88;;;19.70;;
66946;SDS011;53853;51.982;5.928;2022-12-10T19:12:05;40.73;;;21.10;;
66946;SDS011;53853;51.982;5.928;2022-12-10T19:14:36;41.30;;;21.50;;
66946;SDS011;53853;51.982;5.928;2022-12-10T19:17:07;37.80;;;19.13;;
66946;SDS011;53853;51.982;5.928;2022-12-10T19:19:38;42.88;;;21.05;;
66946;SDS011;53853;51.982;5.928;2022-12-10T19:22:09;37.90;;;20.40;;
66946;SDS011;53853;51.982;5.928;2022-12-10T19:24:41;46.97;;;23.75;;
66946;SDS011;53853;51.982;5.928;2022-12-10T19:27:11;47.83;;;22.02;;
66946;SDS011;53853;51.982;5.928;2022-12-10T19:29:41;39.55;;;20.17;;
66946;SDS011;53853;51.982;5.928;2022-12-10T19:32:11;40.63;;;22.73;;
66946;SDS011;53853;51.982;5.928;2022-12-10T19:34:41;44.65;;;21.08;;
66946;SDS011;53853;51.982;5.928;2022-12-10T19:37:11;37.05;;;20.65;;
66946;SDS011;53853;51.982;5.928;2022-12-10T19:39:44;42.95;;;21.90;;
66946;SDS011;53853;51.982;5.928;2022-12-10T19:42:13;43.15;;;21.48;;
66946;SDS011;53853;51.982;5.928;2022-12-10T19:44:44;48.75;;;22.77;;
66946;SDS011;53853;51.982;5.928;2022-12-10T19:47:14;38.65;;;21.00;;
66946;SDS011;53853;51.982;5.928;2022-12-10T19:49:45;43.00;;;20.13;;
66946;SDS011;53853;51.982;5.928;2022-12-10T19:52:15;34.40;;;20.02;;
66946;SDS011;53853;51.982;5.928;2022-12-10T19:54:48;38.65;;;20.98;;
66946;SDS011;53853;51.982;5.928;2022-12-10T19:57:18;37.50;;;19.33;;
66946;SDS011;53853;51.982;5.928;2022-12-10T19:59:48;42.25;;;22.15;;
66946;SDS011;53853;51.982;5.928;2022-12-10T20:02:17;42.08;;;20.02;;
66946;SDS011;53853;51.982;5.928;2022-12-10T20:04:47;38.80;;;21.75;;
66946;SDS011;53853;51.982;5.928;2022-12-10T20:07:17;38.92;;;21.23;;
66946;SDS011;53853;51.982;5.928;2022-12-10T20:09:50;39.70;;;21.05;;
66946;SDS011;53853;51.982;5.928;2022-12-10T20:12:20;37.85;;;19.02;;
66946;SDS011;53853;51.982;5.928;2022-12-10T20:14:50;39.42;;;19.95;;
66946;SDS011;53853;51.982;5.928;2022-12-10T20:17:20;40.50;;;18.27;;
66946;SDS011;53853;51.982;5.928;2022-12-10T20:19:50;38.53;;;18.42;;
66946;SDS011;53853;51.982;5.928;2022-12-10T20:22:20;32.58;;;16.40;;
66946;SDS011;53853;51.982;5.928;2022-12-10T20:24:53;38.10;;;18.80;;
66946;SDS011;53853;51.982;5.928;2022-12-10T20:27:23;38.75;;;18.95;;
66946;SDS011;53853;51.982;5.928;2022-12-10T20:29:53;38.97;;;19.10;;
66946;SDS011;53853;51.982;5.928;2022-12-10T20:32:23;32.92;;;18.42;;
66946;SDS011;53853;51.982;5.928;2022-12-10T20:34:53;34.28;;;18.20;;
66946;SDS011;53853;51.982;5.928;2022-12-10T20:37:23;32.15;;;17.67;;
66946;SDS011;53853;51.982;5.928;2022-12-10T20:39:57;34.60;;;18.45;;
66946;SDS011;53853;51.982;5.928;2022-12-10T20:42:27;42.17;;;20.00;;
66946;SDS011;53853;51.982;5.928;2022-12-10T20:44:57;34.50;;;18.48;;
66946;SDS011;53853;51.982;5.928;2022-12-10T20:47:28;37.90;;;19.30;;
66946;SDS011;53853;51.982;5.928;2022-12-10T20:49:58;39.33;;;21.05;;
66946;SDS011;53853;51.982;5.928;2022-12-10T20:52:28;40.70;;;20.02;;
66946;SDS011;53853;51.982;5.928;2022-12-10T20:55:00;42.35;;;21.42;;
66946;SDS011;53853;51.982;5.928;2022-12-10T20:57:31;42.22;;;22.48;;
66946;SDS011;53853;51.982;5.928;2022-12-10T21:00:01;45.38;;;21.45;;
66946;SDS011;53853;51.982;5.928;2022-12-10T21:02:32;36.63;;;19.25;;
66946;SDS011;53853;51.982;5.928;2022-12-10T21:05:02;31.15;;;17.95;;
66946;SDS011;53853;51.982;5.928;2022-12-10T21:07:33;36.72;;;18.90;;
66946;SDS011;53853;51.982;5.928;2022-12-10T21:10:06;36.97;;;19.02;;
66946;SDS011;53853;51.982;5.928;2022-12-10T21:12:58;34.42;;;19.23;;
66946;SDS011;53853;51.982;5.928;2022-12-10T21:15:28;33.03;;;17.55;;
66946;SDS011;53853;51.982;5.928;2022-12-10T21:17:57;34.28;;;18.63;;
66946;SDS011;53853;51.982;5.928;2022-12-10T21:20:27;33.95;;;18.75;;
66946;SDS011;53853;51.982;5.928;2022-12-10T21:22:57;32.83;;;17.40;;
66946;SDS011;53853;51.982;5.928;2022-12-10T21:25:30;38.97;;;19.85;;
66946;SDS011;53853;51.982;5.928;2022-12-10T21:28:01;38.53;;;20.40;;
66946;SDS011;53853;51.982;5.928;2022-12-10T21:30:32;32.58;;;17.83;;
66946;SDS011;53853;51.982;5.928;2022-12-10T21:33:04;29.80;;;16.98;;
66946;SDS011;53853;51.982;5.928;2022-12-10T21:35:34;29.73;;;17.08;;
66946;SDS011;53853;51.982;5.928;2022-12-10T21:38:04;27.42;;;15.60;;
66946;SDS011;53853;51.982;5.928;2022-12-10T21:40:37;31.45;;;17.88;;
66946;SDS011;53853;51.982;5.928;2022-12-10T21:43:09;29.90;;;16.65;;
66946;SDS011;53853;51.982;5.928;2022-12-10T21:45:41;29.73;;;16.13;;
66946;SDS011;53853;51.982;5.928;2022-12-10T21:48:12;30.70;;;17.92;;
66946;SDS011;53853;51.982;5.928;2022-12-10T21:50:45;28.83;;;15.65;;
66946;SDS011;53853;51.982;5.928;2022-12-10T21:53:15;30.70;;;17.48;;
66946;SDS011;53853;51.982;5.928;2022-12-10T21:55:47;25.05;;;13.75;;
66946;SDS011;53853;51.982;5.928;2022-12-10T21:58:18;31.20;;;16.27;;
66946;SDS011;53853;51.982;5.928;2022-12-10T22:00:53;35.80;;;18.52;;
66946;SDS011;53853;51.982;5.928;2022-12-10T22:03:25;26.90;;;15.70;;
66946;SDS011;53853;51.982;5.928;2022-12-10T22:05:55;27.58;;;15.13;;
66946;SDS011;53853;51.982;5.928;2022-12-10T22:08:25;23.65;;;14.95;;
66946;SDS011;53853;51.982;5.928;2022-12-10T22:10:57;27.02;;;15.75;;
66946;SDS011;53853;51.982;5.928;2022-12-10T22:13:27;32.55;;;17.63;;
66946;SDS011;53853;51.982;5.928;2022-12-10T22:15:57;28.58;;;17.20;;
66946;SDS011;53853;51.982;5.928;2022-12-10T22:18:29;28.80;;;15.57;;
66946;SDS011;53853;51.982;5.928;2022-12-10T22:21:00;30.70;;;17.10;;
66946;SDS011;53853;51.982;5.928;2022-12-10T22:23:30;32.33;;;16.95;;
66946;SDS011;53853;51.982;5.928;2022-12-10T22:26:05;29.30;;;16.27;;
66946;SDS011;53853;51.982;5.928;2022-12-10T22:28:35;32.28;;;16.90;;
66946;SDS011;53853;51.982;5.928;2022-12-10T22:31:06;33.33;;;18.25;;
66946;SDS011;53853;51.982;5.928;2022-12-10T22:33:36;32.58;;;18.73;;
66946;SDS011;53853;51.982;5.928;2022-12-10T22:36:06;35.38;;;18.00;;
66946;SDS011;53853;51.982;5.928;2022-12-10T22:38:37;33.28;;;19.52;;
66946;SDS011;53853;51.982;5.928;2022-12-10T22:41:09;32.53;;;18.67;;
66946;SDS011;53853;51.982;5.928;2022-12-10T22:43:39;32.50;;;17.92;;
66946;SDS011;53853;51.982;5.928;2022-12-10T22:46:09;33.17;;;19.55;;
66946;SDS011;53853;51.982;5.928;2022-12-10T22:48:39;35.50;;;20.02;;
66946;SDS011;53853;51.982;5.928;2022-12-10T22:51:09;36.58;;;18.77;;
66946;SDS011;53853;51.982;5.928;2022-12-10T22:53:39;35.22;;;19.08;;
66946;SDS011;53853;51.982;5.928;2022-12-10T22:56:13;32.50;;;17.83;;
66946;SDS011;53853;51.982;5.928;2022-12-10T22:58:43;38.53;;;20.70;;
66946;SDS011;53853;51.982;5.928;2022-12-10T23:01:13;37.53;;;19.85;;
66946;SDS011;53853;51.982;5.928;2022-12-10T23:03:44;28.45;;;15.68;;
66946;SDS011;53853;51.982;5.928;2022-12-10T23:06:16;34.83;;;18.70;;
66946;SDS011;53853;51.982;5.928;2022-12-10T23:08:46;39.95;;;20.00;;
66946;SDS011;53853;51.982;5.928;2022-12-10T23:11:19;39.75;;;23.05;;
66946;SDS011;53853;51.982;5.928;2022-12-10T23:13:50;29.95;;;19.35;;
66946;SDS011;53853;51.982;5.928;2022-12-10T23:16:20;38.25;;;19.58;;
66946;SDS011;53853;51.982;5.928;2022-12-10T23:18:51;44.75;;;21.15;;
66946;SDS011;53853;51.982;5.928;2022-12-10T23:21:21;34.17;;;18.98;;
66946;SDS011;53853;51.982;5.928;2022-12-10T23:23:53;36.95;;;20.55;;
66946;SDS011;53853;51.982;5.928;2022-12-10T23:26:25;36.25;;;19.30;;
66946;SDS011;53853;51.982;5.928;2022-12-10T23:28:55;40.58;;;21.30;;
66946;SDS011;53853;51.982;5.928;2022-12-10T23:31:25;38.78;;;19.70;;
66946;SDS011;53853;51.982;5.928;2022-12-10T23:33:55;43.60;;;22.83;;
66946;SDS011;53853;51.982;5.928;2022-12-10T23:36:25;40.08;;;21.35;;
66946;SDS011;53853;51.982;5.928;2022-12-10T23:38:55;36.58;;;18.58;;
66946;SDS011;53853;51.982;5.928;2022-12-10T23:41:28;35.58;;;20.20;;
66946;SDS011;53853;51.982;5.928;2022-12-10T23:43:58;38.90;;;21.20;;
66946;SDS011;53853;51.982;5.928;2022-12-10T23:46:28;46.50;;;24.73;;
66946;SDS011;53853;51.982;5.928;2022-12-10T23:48:58;40.45;;;21.95;;
66946;SDS011;53853;51.982;5.928;2022-12-10T23:51:28;40.92;;;21.30;;
66946;SDS011;53853;51.982;5.928;2022-12-10T23:53:58;45.08;;;22.80;;
66946;SDS011;53853;51.982;5.928;2022-12-10T23:56:30;43.90;;;21.38;;
66946;SDS011;53853;51.982;5.928;2022-12-10T23:59:00;42.33;;;20.95;;
